Time;durP1;ratioP1;P1;durP2;ratioP2;P2;SDS_P1;SDS_P2;PMS_P1;PMS_P2;Temp;Humidity;BMP_temperature;BMP_pressure;BME280_temperature;BME280_humidity;BME280_pressure;Samples;Min_cycle;Max_cycle;Signal;HPM_P1;HPM_P2
2023/02/28 00:00:23;;;;;;;1999.90;999.90;;;1.90;99.90;;;;;;5031981;28;20188;-70
2023/02/28 00:02:49;;;;;;;1999.90;999.90;;;1.80;99.90;;;;;;5032102;28;20251;-70
2023/02/28 00:05:17;;;;;;;1999.90;999.90;;;1.90;99.90;;;;;;5032226;28;20633;-70
2023/02/28 00:07:43;;;;;;;1999.90;999.90;;;1.80;99.90;;;;;;5032097;28;20196;-70
2023/02/28 00:10:19;;;;;;;1999.90;999.90;;;1.70;99.90;;;;;;5031938;28;20239;-70
2023/02/28 00:12:44;;;;;;;1999.90;999.90;;;1.60;99.90;;;;;;5031978;28;20168;-70
2023/02/28 00:15:10;;;;;;;1999.90;999.90;;;1.60;99.90;;;;;;5032056;28;20187;-70
2023/02/28 00:17:37;;;;;;;1999.90;999.90;;;1.50;99.90;;;;;;5031969;28;20176;-70
2023/02/28 00:20:06;;;;;;;1999.90;999.90;;;1.50;99.90;;;;;;5031970;28;20196;-70
2023/02/28 00:22:32;;;;;;;1999.90;999.90;;;1.40;99.90;;;;;;5031899;28;20180;-70
2023/02/28 00:24:57;;;;;;;1999.90;999.90;;;1.40;99.90;;;;;;5031978;28;20176;-70
2023/02/28 00:27:23;;;;;;;1999.90;999.90;;;1.40;99.90;;;;;;5031925;28;20174;-70
2023/02/28 00:29:49;;;;;;;1999.90;999.90;;;1.30;99.90;;;;;;5031761;28;20207;-70
2023/02/28 00:32:14;;;;;;;1999.90;999.90;;;1.30;99.90;;;;;;5031728;28;20168;-70
2023/02/28 00:34:40;;;;;;;1999.90;999.90;;;1.30;99.90;;;;;;5032053;28;20176;-70
2023/02/28 00:37:07;;;;;;;1999.90;999.90;;;1.20;99.90;;;;;;5031770;28;20885;-70
2023/02/28 00:39:35;;;;;;;1999.90;999.90;;;1.30;99.90;;;;;;5031688;28;20211;-70
2023/02/28 00:42:01;;;;;;;1999.90;999.90;;;1.30;99.90;;;;;;5031669;28;20212;-70
2023/02/28 00:44:27;;;;;;;1999.90;999.90;;;1.20;99.90;;;;;;5031970;28;20169;-70
2023/02/28 00:46:53;;;;;;;1999.90;999.90;;;1.30;99.90;;;;;;5031680;28;20246;-70
2023/02/28 00:49:20;;;;;;;1999.90;999.90;;;1.20;99.90;;;;;;5031602;28;20195;-70
2023/02/28 00:51:46;;;;;;;1999.90;999.90;;;1.20;99.90;;;;;;5031529;28;20183;-70
2023/02/28 00:54:11;;;;;;;1999.90;999.90;;;1.20;99.90;;;;;;5031753;28;20561;-70
2023/02/28 00:56:37;;;;;;;1999.90;999.90;;;1.20;99.90;;;;;;5031575;28;20395;-70
2023/02/28 00:59:03;;;;;;;1999.90;999.90;;;1.10;99.90;;;;;;5031509;28;20164;-70
2023/02/28 01:01:28;;;;;;;1999.90;999.90;;;1.10;99.90;;;;;;5031471;28;20192;-70
2023/02/28 01:03:54;;;;;;;1999.90;999.90;;;1.10;99.90;;;;;;5031955;28;20173;-70
2023/02/28 01:06:19;;;;;;;1999.90;999.90;;;1.00;99.90;;;;;;5031509;28;20175;-70
2023/02/28 01:08:45;;;;;;;1999.90;999.90;;;1.00;99.90;;;;;;5031383;28;20200;-70
2023/02/28 01:11:14;;;;;;;1999.90;999.90;;;1.00;99.90;;;;;;5031409;28;20188;-70
2023/02/28 01:13:40;;;;;;;1999.90;999.90;;;1.00;99.90;;;;;;5034921;28;20302;-70
2023/02/28 01:16:06;;;;;;;1999.90;999.90;;;1.00;99.90;;;;;;5035265;28;20164;-70
2023/02/28 01:18:32;;;;;;;1999.90;999.90;;;0.90;99.90;;;;;;5035245;28;20172;-70
2023/02/28 01:20:57;;;;;;;1999.90;999.90;;;0.90;99.90;;;;;;5035087;28;20203;-70
2023/02/28 01:23:23;;;;;;;1999.90;999.90;;;0.90;99.90;;;;;;5035137;28;20658;-70
2023/02/28 01:25:50;;;;;;;1999.90;999.90;;;0.80;99.90;;;;;;5035091;28;20164;-70
2023/02/28 01:28:16;;;;;;;1999.90;999.90;;;0.80;99.90;;;;;;5035042;28;20229;-70
2023/02/28 01:30:41;;;;;;;1999.90;999.90;;;0.80;99.90;;;;;;5034928;28;20274;-70
2023/02/28 01:33:07;;;;;;;1999.90;999.90;;;0.80;99.90;;;;;;5034933;28;20173;-70
2023/02/28 01:35:34;;;;;;;1999.90;999.90;;;0.80;99.90;;;;;;5035003;28;20175;-70
2023/02/28 01:37:59;;;;;;;1999.90;999.90;;;0.80;99.90;;;;;;5035243;28;20682;-70
2023/02/28 01:40:25;;;;;;;1999.90;999.90;;;0.80;99.90;;;;;;5034798;28;20242;-70
2023/02/28 01:42:51;;;;;;;1999.90;999.90;;;0.70;99.90;;;;;;5034594;28;20657;-70
2023/02/28 01:45:29;;;;;;;1999.90;999.90;;;0.70;99.90;;;;;;5035235;28;20184;-70
2023/02/28 01:48:01;;;;;;;1999.90;999.90;;;0.70;99.90;;;;;;5034592;28;20188;-70
2023/02/28 01:50:31;;;;;;;1999.90;999.90;;;0.80;99.90;;;;;;5034685;28;20204;-70
2023/02/28 01:53:01;;;;;;;1999.90;999.90;;;0.70;99.90;;;;;;5034462;28;20215;-70
2023/02/28 01:55:28;;;;;;;1999.90;999.90;;;0.70;99.90;;;;;;5034532;28;20173;-70
2023/02/28 01:57:57;;;;;;;1999.90;999.90;;;0.70;99.90;;;;;;5034385;28;20608;-70
2023/02/28 02:00:26;;;;;;;1999.90;999.90;;;0.70;99.90;;;;;;5034925;28;20200;-69
2023/02/28 02:02:57;;;;;;;1999.90;999.90;;;0.60;99.90;;;;;;5034353;28;20181;-70
2023/02/28 02:05:34;;;;;;;1999.90;999.90;;;0.60;99.90;;;;;;5034446;28;20179;-70
2023/02/28 02:08:05;;;;;;;1999.90;999.90;;;0.60;99.90;;;;;;5034229;28;20238;-70
2023/02/28 02:10:36;;;;;;;1999.90;999.90;;;0.60;99.90;;;;;;5033256;28;20366;-70
2023/02/28 02:13:33;;;;;;;1999.90;999.90;;;0.60;99.90;;;;;;5033133;28;20222;-70
2023/02/28 02:16:32;;;;;;;1999.90;999.90;;;0.60;99.90;;;;;;5033098;28;20177;-70
2023/02/28 02:19:35;;;;;;;1999.90;999.90;;;0.60;99.90;;;;;;5033100;28;20175;-70
2023/02/28 02:22:38;;;;;;;1999.90;999.90;;;0.60;99.90;;;;;;5032882;28;20179;-70
2023/02/28 02:25:30;;;;;;;1999.90;999.90;;;0.50;99.90;;;;;;5032974;28;20196;-70
2023/02/28 02:28:14;;;;;;;1999.90;999.90;;;0.50;99.90;;;;;;5032927;28;20250;-70
2023/02/28 02:31:13;;;;;;;1999.90;999.90;;;0.50;99.90;;;;;;5032740;28;20204;-70
2023/02/28 02:34:03;;;;;;;1999.90;999.90;;;0.50;99.90;;;;;;5032886;28;20168;-70
2023/02/28 02:36:47;;;;;;;1999.90;999.90;;;0.40;99.90;;;;;;5032765;28;20204;-70
2023/02/28 02:39:24;;;;;;;1999.90;999.90;;;0.40;99.90;;;;;;5032928;28;20192;-69
2023/02/28 02:41:58;;;;;;;1999.90;999.90;;;0.40;99.90;;;;;;5032631;28;20184;-70
2023/02/28 02:44:46;;;;;;;1999.90;999.90;;;0.50;99.90;;;;;;5033355;28;20171;-70
2023/02/28 02:47:17;;;;;;;1999.90;999.90;;;0.50;99.90;;;;;;5032616;28;20303;-70
2023/02/28 02:49:49;;;;;;;1999.90;999.90;;;0.40;99.90;;;;;;5032391;28;20242;-70
2023/02/28 02:52:21;;;;;;;1999.90;999.90;;;0.50;99.90;;;;;;5032438;28;20164;-70
2023/02/28 02:54:49;;;;;;;1999.90;999.90;;;0.50;99.90;;;;;;5032577;28;20283;-70
2023/02/28 02:57:27;;;;;;;1999.90;999.90;;;0.50;99.90;;;;;;5032396;28;20172;-70
2023/02/28 02:59:54;;;;;;;1999.90;999.90;;;0.60;99.90;;;;;;5032416;28;20226;-70
2023/02/28 03:02:21;;;;;;;1999.90;999.90;;;0.60;99.90;;;;;;5032263;28;20172;-70
2023/02/28 03:04:52;;;;;;;1999.90;999.90;;;0.60;99.90;;;;;;5032412;28;20207;-70
2023/02/28 03:07:18;;;;;;;1999.90;999.90;;;0.60;99.90;;;;;;5032283;28;20187;-70
2023/02/28 03:09:54;;;;;;;1999.90;999.90;;;0.50;99.90;;;;;;4993974;28;1103343;-70
2023/02/28 03:12:22;;;;;;;1999.90;999.90;;;0.50;99.90;;;;;;5032908;28;20172;-70
2023/02/28 03:15:14;;;;;;;1999.90;999.90;;;0.50;99.90;;;;;;5033327;28;20180;-70
2023/02/28 03:18:04;;;;;;;1999.90;999.90;;;0.50;99.90;;;;;;5032978;28;20203;-70
2023/02/28 03:20:30;;;;;;;1999.90;999.90;;;0.50;99.90;;;;;;5032968;28;20193;-70
2023/02/28 03:23:12;;;;;;;1999.90;999.90;;;0.50;99.90;;;;;;5032750;28;20180;-70
2023/02/28 03:25:46;;;;;;;1999.90;999.90;;;0.50;99.90;;;;;;5032887;28;20169;-70
2023/02/28 03:28:22;;;;;;;1999.90;999.90;;;0.50;99.90;;;;;;5032927;28;20168;-69
2023/02/28 03:30:57;;;;;;;1999.90;999.90;;;0.50;99.90;;;;;;5032815;28;20697;-70
2023/02/28 03:33:31;;;;;;;1999.90;999.90;;;0.40;99.90;;;;;;5032823;28;20199;-70
2023/02/28 03:36:04;;;;;;;1999.90;999.90;;;0.40;99.90;;;;;;5032166;28;20259;-70
2023/02/28 03:38:35;;;;;;;1999.90;999.90;;;0.40;99.90;;;;;;5032492;28;20173;-70
2023/02/28 03:41:13;;;;;;;1999.90;999.90;;;0.40;99.90;;;;;;5032374;28;20195;-70
2023/02/28 03:43:44;;;;;;;1999.90;999.90;;;0.30;99.90;;;;;;5032563;28;20618;-70
2023/02/28 03:46:14;;;;;;;1999.90;999.90;;;0.30;99.90;;;;;;5033122;28;20168;-71
2023/02/28 03:48:45;;;;;;;1999.90;999.90;;;0.20;99.90;;;;;;5033300;28;20546;-71
2023/02/28 03:51:17;;;;;;;1999.90;999.90;;;0.30;99.90;;;;;;5032847;28;20188;-70
2023/02/28 03:53:56;;;;;;;1999.90;999.90;;;0.20;99.90;;;;;;5033298;28;20255;-71
2023/02/28 03:56:34;;;;;;;1999.90;999.90;;;0.20;99.90;;;;;;5032794;28;20525;-71
2023/02/28 03:59:12;;;;;;;1999.90;999.90;;;0.20;99.90;;;;;;5033445;28;20664;-71
2023/02/28 04:01:44;;;;;;;1999.90;999.90;;;0.10;99.90;;;;;;5032766;28;20171;-71
2023/02/28 04:04:11;;;;;;;1999.90;999.90;;;0.10;99.90;;;;;;5032627;28;20176;-71
2023/02/28 04:06:37;;;;;;;1999.90;999.90;;;0.00;99.90;;;;;;5032275;28;20658;-71
2023/02/28 04:09:05;;;;;;;1999.90;999.90;;;0.00;99.90;;;;;;5032327;28;20287;-70
2023/02/28 04:11:44;;;;;;;1999.90;999.90;;;0.00;99.90;;;;;;5032244;28;20406;-71
2023/02/28 04:14:10;;;;;;;1999.90;999.90;;;0.00;99.90;;;;;;5032537;28;20164;-71
2023/02/28 04:16:39;;;;;;;1999.90;999.90;;;0.00;99.90;;;;;;5032349;28;20306;-71
2023/02/28 04:19:07;;;;;;;1999.90;999.90;;;-0.10;99.90;;;;;;5032224;28;20179;-71
2023/02/28 04:21:38;;;;;;;1999.90;999.90;;;-0.10;99.90;;;;;;5032417;28;20184;-71
2023/02/28 04:24:05;;;;;;;1999.90;999.90;;;-0.10;99.90;;;;;;5032280;28;20183;-71
2023/02/28 04:26:31;;;;;;;1999.90;999.90;;;-0.10;99.90;;;;;;5032408;28;20191;-71
2023/02/28 04:28:58;;;;;;;1999.90;999.90;;;-0.20;99.90;;;;;;5031999;28;20203;-71
2023/02/28 04:31:23;;;;;;;1999.90;999.90;;;-0.20;99.90;;;;;;5032175;28;20176;-71
2023/02/28 04:33:49;;;;;;;1999.90;999.90;;;-0.20;99.90;;;;;;5032052;28;20736;-71
2023/02/28 04:36:17;;;;;;;1999.90;999.90;;;-0.30;99.90;;;;;;5032222;28;20168;-71
2023/02/28 04:38:43;;;;;;;1999.90;999.90;;;-0.30;99.90;;;;;;5032336;28;20160;-71
2023/02/28 04:41:09;;;;;;;1999.90;999.90;;;-0.30;99.90;;;;;;5032145;28;20196;-71
2023/02/28 04:43:34;;;;;;;1999.90;999.90;;;-0.30;99.90;;;;;;5032413;28;20255;-71
2023/02/28 04:46:02;;;;;;;1999.90;999.90;;;-0.30;99.90;;;;;;5032302;28;20577;-70
2023/02/28 04:48:30;;;;;;;1999.90;999.90;;;-0.30;99.90;;;;;;5035835;28;20180;-70
2023/02/28 04:51:01;;;;;;;1999.90;999.90;;;-0.30;99.90;;;;;;5036215;28;20208;-71
2023/02/28 04:53:28;;;;;;;1999.90;999.90;;;-0.30;99.90;;;;;;5036314;28;20239;-71
2023/02/28 04:55:54;;;;;;;1999.90;999.90;;;-0.30;99.90;;;;;;5036068;28;20230;-69
2023/02/28 04:58:22;;;;;;;1999.90;999.90;;;-0.40;99.90;;;;;;5035985;28;20665;-71
2023/02/28 05:00:48;;;;;;;1999.90;999.90;;;-0.40;99.90;;;;;;5036024;28;20461;-71
2023/02/28 05:03:14;;;;;;;1999.90;999.90;;;-0.40;99.90;;;;;;5035911;28;20182;-71
2023/02/28 05:05:39;;;;;;;1999.90;999.90;;;-0.40;99.90;;;;;;5035920;28;20172;-71
2023/02/28 05:08:05;;;;;;;1999.90;999.90;;;-0.40;99.90;;;;;;5035661;28;20215;-71
2023/02/28 05:10:31;;;;;;;1999.90;999.90;;;-0.40;99.90;;;;;;5035665;28;20212;-70
2023/02/28 05:12:57;;;;;;;1999.90;999.90;;;-0.40;99.90;;;;;;5035495;28;20164;-71
2023/02/28 05:15:24;;;;;;;1999.90;999.90;;;-0.40;99.90;;;;;;5035748;28;20510;-71
2023/02/28 05:17:49;;;;;;;1999.90;999.90;;;-0.40;99.90;;;;;;5035620;28;20893;-71
2023/02/28 05:20:15;;;;;;;1999.90;999.90;;;-0.40;99.90;;;;;;5035359;28;20200;-71
2023/02/28 05:22:41;;;;;;;1999.90;999.90;;;-0.40;99.90;;;;;;5035351;28;20621;-70
2023/02/28 05:25:11;;;;;;;1999.90;999.90;;;-0.40;99.90;;;;;;5035622;28;20164;-69
2023/02/28 05:27:37;;;;;;;1999.90;999.90;;;-0.40;99.90;;;;;;5035604;28;20522;-70
2023/02/28 05:30:04;;;;;;;1999.90;999.90;;;-0.50;99.90;;;;;;5035474;28;20262;-71
2023/02/28 05:32:29;;;;;;;1999.90;999.90;;;-0.40;99.90;;;;;;5035627;28;20192;-71
2023/02/28 05:34:55;;;;;;;1999.90;999.90;;;-0.50;99.90;;;;;;5036191;28;20179;-71
2023/02/28 05:37:20;;;;;;;1999.90;999.90;;;-0.50;99.90;;;;;;5035733;28;20226;-71
2023/02/28 05:39:46;;;;;;;1999.90;999.90;;;-0.50;99.90;;;;;;5035983;28;20597;-70
2023/02/28 05:42:11;;;;;;;1999.90;999.90;;;-0.50;99.90;;;;;;5035834;28;20657;-70
2023/02/28 05:44:37;;;;;;;1999.90;999.90;;;-0.60;99.90;;;;;;5035642;28;20219;-71
2023/02/28 05:47:03;;;;;;;1999.90;999.90;;;-0.60;99.90;;;;;;5036498;28;20267;-71
2023/02/28 05:49:28;;;;;;;1999.90;999.90;;;-0.60;99.90;;;;;;5035211;28;20227;-71
2023/02/28 05:51:54;;;;;;;1999.90;999.90;;;-0.60;99.90;;;;;;5035059;28;20164;-71
2023/02/28 05:54:20;;;;;;;1999.90;999.90;;;-0.60;99.90;;;;;;5035153;28;20271;-71
2023/02/28 05:56:45;;;;;;;1999.90;999.90;;;-0.70;99.90;;;;;;5035257;28;20176;-71
2023/02/28 05:59:12;;;;;;;1999.90;999.90;;;-0.70;99.90;;;;;;5034546;28;20201;-71
2023/02/28 06:01:40;;;;;;;1999.90;999.90;;;-0.70;99.90;;;;;;5034548;28;20226;-70
2023/02/28 06:04:10;;;;;;;1999.90;999.90;;;-0.60;99.90;;;;;;5034555;28;20172;-69
2023/02/28 06:06:36;;;;;;;1999.90;999.90;;;-0.70;99.90;;;;;;5034372;28;20172;-69
2023/02/28 06:09:05;;;;;;;1999.90;999.90;;;-0.70;99.90;;;;;;5034277;28;20216;-70
2023/02/28 06:11:31;;;;;;;1999.90;999.90;;;-0.80;99.90;;;;;;5034249;28;20638;-70
2023/02/28 06:13:59;;;;;;;1999.90;999.90;;;-0.80;99.90;;;;;;5034292;28;20178;-69
2023/02/28 06:16:25;;;;;;;1999.90;999.90;;;-0.80;99.90;;;;;;5034315;28;20267;-70
2023/02/28 06:18:52;;;;;;;1999.90;999.90;;;-0.80;99.90;;;;;;5034188;28;20184;-70
2023/02/28 06:21:18;;;;;;;1999.90;999.90;;;-0.80;99.90;;;;;;5034013;28;20179;-70
2023/02/28 06:23:44;;;;;;;1999.90;999.90;;;-0.80;99.90;;;;;;5034144;28;20255;-69
2023/02/28 06:26:10;;;;;;;1999.90;999.90;;;-0.80;99.90;;;;;;5034159;28;20410;-69
2023/02/28 06:28:35;;;;;;;1999.90;999.90;;;-0.90;99.90;;;;;;5033952;28;20165;-69
2023/02/28 06:31:10;;;;;;;1999.90;999.90;;;-0.80;99.90;;;;;;5033809;28;20916;-70
2023/02/28 06:33:36;;;;;;;1999.90;999.90;;;-0.90;99.90;;;;;;5033998;28;20164;-69
2023/02/28 06:36:03;;;;;;;1999.90;999.90;;;-0.90;99.90;;;;;;5033903;28;20172;-70
2023/02/28 06:38:28;;;;;;;1999.90;999.90;;;-0.90;99.90;;;;;;5033863;28;20169;-70
2023/02/28 06:40:55;;;;;;;1999.90;999.90;;;-1.00;99.90;;;;;;5033497;28;20195;-70
2023/02/28 06:43:23;;;;;;;1999.90;999.90;;;-0.90;99.90;;;;;;5033732;28;20183;-69
2023/02/28 06:45:49;;;;;;;1999.90;999.90;;;-0.90;99.90;;;;;;5033701;28;20255;-70
2023/02/28 06:48:15;;;;;;;1999.90;999.90;;;-0.90;99.90;;;;;;5033650;28;20601;-70
2023/02/28 06:50:40;;;;;;;1999.90;999.90;;;-0.80;99.90;;;;;;5033470;28;20459;-70
2023/02/28 06:53:06;;;;;;;1999.90;999.90;;;-0.80;99.90;;;;;;5033357;28;20168;-69
2023/02/28 06:55:31;;;;;;;1999.90;999.90;;;-0.80;99.90;;;;;;5033529;28;20160;-70
2023/02/28 06:57:58;;;;;;;1999.90;999.90;;;-0.70;99.90;;;;;;5033351;28;20211;-69
2023/02/28 07:00:24;;;;;;;1999.90;999.90;;;-0.70;99.90;;;;;;5033364;28;20255;-70
2023/02/28 07:02:50;;;;;;;1999.90;999.90;;;-0.70;99.90;;;;;;5033146;28;20654;-70
2023/02/28 07:05:16;;;;;;;1999.90;999.90;;;-0.70;99.90;;;;;;5033364;28;20252;-70
2023/02/28 07:07:44;;;;;;;1999.90;999.90;;;-0.60;99.90;;;;;;5033109;28;20415;-70
2023/02/28 07:10:14;;;;;;;1999.90;999.90;;;-0.60;99.90;;;;;;5032291;28;20261;-70
2023/02/28 07:12:39;;;;;;;1999.90;999.90;;;-0.50;99.90;;;;;;5033581;28;20255;-69
2023/02/28 07:15:06;;;;;;;1999.90;999.90;;;-0.40;99.90;;;;;;5033373;28;20726;-71
2023/02/28 07:17:31;;;;;;;1999.90;999.90;;;-0.40;99.90;;;;;;5033569;28;20176;-71
2023/02/28 07:19:57;;;;;;;1999.90;999.90;;;-0.40;99.90;;;;;;5033302;28;20712;-71
2023/02/28 07:22:22;;;;;;;1999.90;999.90;;;-0.30;99.90;;;;;;5032831;28;20167;-70
2023/02/28 07:24:48;;;;;;;1999.90;999.90;;;-0.30;99.90;;;;;;5032997;28;20298;-70
2023/02/28 07:27:23;;;;;;;1999.90;999.90;;;-0.30;99.90;;;;;;5032791;28;20626;-70
2023/02/28 07:29:49;;;;;;;1999.90;999.90;;;-0.20;99.90;;;;;;5032700;28;20214;-70
2023/02/28 07:32:15;;;;;;;1999.90;999.90;;;-0.10;99.90;;;;;;5032643;28;20160;-70
2023/02/28 07:34:40;;;;;;;1999.90;999.90;;;0.00;99.90;;;;;;5032812;28;20187;-70
2023/02/28 07:37:06;;;;;;;1999.90;999.90;;;0.10;99.90;;;;;;5033023;28;20176;-71
2023/02/28 07:39:32;;;;;;;1999.90;999.90;;;0.10;99.90;;;;;;5032642;28;20724;-70
2023/02/28 07:41:59;;;;;;;1999.90;999.90;;;0.20;99.90;;;;;;5032442;28;20173;-71
2023/02/28 07:44:25;;;;;;;1999.90;999.90;;;0.40;99.90;;;;;;5032610;28;20175;-71
2023/02/28 07:46:50;;;;;;;1999.90;999.90;;;0.50;99.90;;;;;;5032388;28;20540;-71
2023/02/28 07:49:16;;;;;;;1999.90;999.90;;;0.50;99.90;;;;;;5032358;28;20230;-70
2023/02/28 07:51:42;;;;;;;1999.90;999.90;;;0.60;99.90;;;;;;5032244;28;20776;-70
2023/02/28 07:54:07;;;;;;;1999.90;999.90;;;0.70;99.90;;;;;;5032399;28;20169;-70
2023/02/28 07:56:33;;;;;;;1999.90;999.90;;;0.70;99.90;;;;;;5032441;28;20226;-70
2023/02/28 07:58:58;;;;;;;1999.90;999.90;;;1.30;99.90;;;;;;5032233;28;20176;-71
2023/02/28 08:01:24;;;;;;;1999.90;999.90;;;0.90;99.90;;;;;;5032157;28;20183;-70
2023/02/28 08:03:50;;;;;;;1999.90;999.90;;;1.00;99.90;;;;;;5032310;28;20180;-71
2023/02/28 08:06:22;;;;;;;1999.90;999.90;;;1.10;99.90;;;;;;5032046;28;20172;-70
2023/02/28 08:08:48;;;;;;;1999.90;999.90;;;1.20;99.90;;;;;;5032047;28;20498;-71
2023/02/28 08:11:14;;;;;;;1999.90;999.90;;;1.20;99.90;;;;;;5031901;28;20200;-70
2023/02/28 08:13:42;;;;;;;1999.90;999.90;;;1.30;99.90;;;;;;5032196;28;20181;-70
2023/02/28 08:16:07;;;;;;;1999.90;999.90;;;1.40;99.90;;;;;;5032018;28;20226;-70
2023/02/28 08:18:33;;;;;;;1999.90;999.90;;;1.50;99.90;;;;;;5032015;28;20168;-71
2023/02/28 08:20:59;;;;;;;1999.90;999.90;;;1.60;99.90;;;;;;5031872;28;20216;-71
2023/02/28 08:23:25;;;;;;;1999.90;999.90;;;1.70;99.90;;;;;;5032033;28;20667;-70
2023/02/28 08:25:55;;;;;;;1999.90;999.90;;;1.80;99.90;;;;;;5031989;28;20186;-71
2023/02/28 08:28:21;;;;;;;1999.90;999.90;;;1.90;99.90;;;;;;5032170;28;20176;-70
2023/02/28 08:30:47;;;;;;;1999.90;999.90;;;1.90;99.90;;;;;;5031816;28;20215;-71
2023/02/28 08:33:12;;;;;;;1999.90;999.90;;;2.00;99.90;;;;;;5031611;28;20492;-71
2023/02/28 08:35:38;;;;;;;1999.90;999.90;;;2.10;99.90;;;;;;5031845;28;20255;-70
2023/02/28 08:38:03;;;;;;;1999.90;999.90;;;2.20;99.90;;;;;;5031817;28;20169;-71
2023/02/28 08:40:29;;;;;;;1999.90;999.90;;;2.30;99.90;;;;;;5031829;28;20227;-71
2023/02/28 08:42:55;;;;;;;1999.90;999.90;;;2.30;99.90;;;;;;5031705;28;20173;-70
2023/02/28 08:45:20;;;;;;;1999.90;999.90;;;2.40;99.90;;;;;;5031779;28;20184;-71
2023/02/28 08:47:46;;;;;;;1999.90;999.90;;;2.50;99.90;;;;;;5031609;28;20215;-71
2023/02/28 08:50:14;;;;;;;1999.90;999.90;;;2.70;99.90;;;;;;5031596;28;20214;-71
2023/02/28 08:52:43;;;;;;;1999.90;999.90;;;2.70;99.90;;;;;;5031587;28;20641;-71
2023/02/28 08:55:09;;;;;;;1999.90;999.90;;;2.80;99.90;;;;;;5031632;28;20680;-70
2023/02/28 08:57:35;;;;;;;1999.90;999.90;;;2.90;99.90;;;;;;5031685;28;20407;-71
2023/02/28 09:00:04;;;;;;;1999.90;999.90;;;3.00;99.90;;;;;;5031601;28;20279;-70
2023/02/28 09:02:30;;;;;;;1999.90;999.90;;;3.20;99.90;;;;;;5031521;28;20442;-70
2023/02/28 09:04:56;;;;;;;1999.90;999.90;;;3.30;99.90;;;;;;5031555;28;20422;-71
2023/02/28 09:07:22;;;;;;;1999.90;999.90;;;3.30;97.10;;;;;;5031476;28;20267;-70
2023/02/28 09:09:53;;;;;;;1999.90;999.90;;;3.40;96.90;;;;;;5031416;28;20207;-70
2023/02/28 09:12:23;;;;;;;1999.90;999.90;;;3.50;96.60;;;;;;5031206;28;20171;-70
2023/02/28 09:14:49;;;;;;;1999.90;999.90;;;3.60;94.00;;;;;;5031520;28;20822;-70
2023/02/28 09:17:15;;;;;;;1999.90;999.90;;;3.70;91.80;;;;;;5037039;28;20407;-70
2023/02/28 09:19:40;;;;;;;1999.90;999.90;;;3.80;91.00;;;;;;5031389;28;20284;-70
2023/02/28 09:22:06;;;;;;;1999.90;999.90;;;3.90;88.00;;;;;;5031263;28;20411;-70
2023/02/28 09:24:31;;;;;;;1999.90;999.90;;;3.90;82.50;;;;;;5031565;28;20585;-70
2023/02/28 09:26:57;;;;;;;1999.90;999.90;;;3.90;75.90;;;;;;5031432;28;20173;-70
2023/02/28 09:29:23;;;;;;;1999.90;999.90;;;4.00;76.40;;;;;;5031135;28;20231;-70
2023/02/28 09:31:49;;;;;;;1999.90;999.90;;;4.00;75.10;;;;;;5026368;28;20256;-71
2023/02/28 09:34:15;;;;;;;1999.90;999.90;;;4.00;72.40;;;;;;5035880;28;20164;-68
2023/02/28 09:36:41;;;;;;;1999.90;999.90;;;4.10;74.70;;;;;;5054413;28;20492;-68
2023/02/28 09:39:07;;;;;;;1999.90;999.90;;;4.10;91.30;;;;;;5053188;28;20442;-68
2023/02/28 09:41:41;;;;;;;1999.90;999.90;;;4.30;73.40;;;;;;5050796;28;20589;-68
2023/02/28 09:44:12;;;;;;;1999.90;999.90;;;4.40;65.80;;;;;;5033962;28;20411;-69
2023/02/28 09:46:43;;;;;;;1999.90;999.90;;;4.50;63.80;;;;;;5034067;28;20406;-68
2023/02/28 09:49:16;;;;;;;1999.90;999.90;;;4.30;80.60;;;;;;5034569;28;20450;-68
2023/02/28 09:52:00;;;;;;;1999.90;999.90;;;4.50;59.80;;;;;;5034339;28;20432;-68
2023/02/28 09:54:29;;;;;;;1999.90;999.90;;;4.60;57.30;;;;;;5033902;28;20769;-69
2023/02/28 09:57:19;;;;;;;1999.90;999.90;;;4.60;57.40;;;;;;5034177;28;20419;-67
2023/02/28 10:00:12;;;;;;;1999.90;999.90;;;4.70;59.60;;;;;;5034120;28;20450;-67
2023/02/28 10:03:06;;;;;;;1999.90;999.90;;;4.90;56.20;;;;;;5029910;28;20419;-68
2023/02/28 10:05:38;;;;;;;1999.90;999.90;;;4.90;52.80;;;;;;4989434;28;20792;-67
2023/02/28 10:08:16;;;;;;;1999.90;999.90;;;5.00;53.20;;;;;;5033553;28;20418;-68
2023/02/28 10:10:53;;;;;;;1999.90;999.90;;;5.00;49.30;;;;;;5033726;28;20995;-70
2023/02/28 10:13:35;;;;;;;1999.90;999.90;;;5.00;47.50;;;;;;5033669;28;20465;-70
2023/02/28 10:16:15;;;;;;;1999.90;999.90;;;5.10;49.90;;;;;;5033386;28;20842;-70
2023/02/28 10:18:52;;;;;;;1999.90;999.90;;;5.20;47.60;;;;;;5033898;28;20410;-70
2023/02/28 10:21:24;;;;;;;1999.90;999.90;;;5.30;48.00;;;;;;5033462;28;20438;-70
2023/02/28 10:23:56;;;;;;;1999.90;999.90;;;5.40;49.30;;;;;;5032854;28;20819;-70
2023/02/28 10:26:23;;;;;;;1999.90;999.90;;;5.50;45.00;;;;;;5033639;28;20460;-71
2023/02/28 10:28:52;;;;;;;1999.90;999.90;;;5.50;41.70;;;;;;5016054;28;20407;-70
2023/02/28 10:31:19;;;;;;;1999.90;999.90;;;5.60;45.30;;;;;;5032798;28;20892;-70
2023/02/28 10:33:45;;;;;;;1999.90;999.90;;;5.70;42.90;;;;;;5033402;28;20438;-70
2023/02/28 10:36:17;;;;;;;1999.90;999.90;;;5.70;43.70;;;;;;5032767;28;20411;-70
2023/02/28 10:38:44;;;;;;;1999.90;999.90;;;5.80;42.20;;;;;;5033093;28;20461;-70
2023/02/28 10:41:16;;;;;;;1999.90;999.90;;;6.00;41.00;;;;;;5033109;28;20447;-71
2023/02/28 10:43:44;;;;;;;1999.90;999.90;;;6.10;39.90;;;;;;5032697;28;20411;-70
2023/02/28 10:46:10;;;;;;;1999.90;999.90;;;6.20;38.80;;;;;;5031653;28;20407;-70
2023/02/28 10:48:43;;;;;;;1999.90;999.90;;;6.40;39.00;;;;;;5032991;28;20418;-70
2023/02/28 10:51:15;;;;;;;1999.90;999.90;;;6.50;38.40;;;;;;5032966;28;20198;-70
2023/02/28 10:53:50;;;;;;;1999.90;999.90;;;6.70;36.20;;;;;;5032484;28;20403;-70
2023/02/28 10:56:21;;;;;;;1999.90;999.90;;;6.80;35.70;;;;;;5032796;28;20921;-70
2023/02/28 10:58:55;;;;;;;1999.90;999.90;;;6.80;33.20;;;;;;5032923;28;20430;-70
2023/02/28 11:01:31;;;;;;;1999.90;999.90;;;6.90;33.80;;;;;;5032228;28;20498;-70
2023/02/28 11:03:58;;;;;;;1999.90;999.90;;;6.80;29.90;;;;;;5032704;28;20805;-70
2023/02/28 11:06:33;;;;;;;1999.90;999.90;;;6.90;32.20;;;;;;5033119;28;20396;-71
2023/02/28 11:09:04;;;;;;;1999.90;999.90;;;7.00;43.40;;;;;;5032132;28;20429;-70
2023/02/28 11:11:41;;;;;;;1999.90;999.90;;;7.20;29.70;;;;;;5032396;28;20395;-70
2023/02/28 11:14:21;;;;;;;1999.90;999.90;;;7.20;28.40;;;;;;5032260;28;20814;-70
2023/02/28 11:16:48;;;;;;;1999.90;999.90;;;7.20;29.00;;;;;;5032608;28;20493;-70
2023/02/28 11:19:33;;;;;;;1999.90;999.90;;;7.30;28.60;;;;;;5032331;28;20438;-71
2023/02/28 11:22:02;;;;;;;1999.90;999.90;;;7.40;29.10;;;;;;5031766;28;20771;-70
2023/02/28 11:24:30;;;;;;;1999.90;999.90;;;7.50;30.10;;;;;;5032475;28;20416;-70
2023/02/28 11:26:56;;;;;;;1999.90;999.90;;;7.60;27.50;;;;;;5032296;28;20445;-70
2023/02/28 11:29:25;;;;;;;1999.90;999.90;;;7.70;29.20;;;;;;5031631;28;20454;-70
2023/02/28 11:32:20;;;;;;;1999.90;999.90;;;7.80;27.50;;;;;;5032056;28;20451;-70
2023/02/28 11:34:59;;;;;;;1999.90;999.90;;;7.90;27.00;;;;;;5032278;28;20465;-70
2023/02/28 11:37:25;;;;;;;1999.90;999.90;;;8.00;24.30;;;;;;5031595;28;20407;-70
2023/02/28 11:39:50;;;;;;;1999.90;999.90;;;8.00;26.30;;;;;;5031897;28;20431;-70
2023/02/28 11:42:38;;;;;;;1999.90;999.90;;;7.70;26.60;;;;;;5031970;28;20750;-70
2023/02/28 11:45:26;;;;;;;1999.90;999.90;;;8.00;25.00;;;;;;5031643;28;20161;-70
2023/02/28 11:48:04;;;;;;;1999.90;999.90;;;8.60;24.50;;;;;;5031781;28;20475;-70
2023/02/28 11:51:04;;;;;;;1999.90;999.90;;;9.20;23.70;;;;;;5031906;28;20693;-70
2023/02/28 11:53:40;;;;;;;1999.90;999.90;;;10.20;19.80;;;;;;5031833;28;20467;-70
2023/02/28 11:56:46;;;;;;;1999.90;999.90;;;11.20;16.60;;;;;;5031460;28;20825;-70
2023/02/28 11:59:43;;;;;;;1999.90;999.90;;;12.00;15.70;;;;;;5031501;28;20435;-70
2023/02/28 12:02:23;;;;;;;1999.90;999.90;;;12.70;11.30;;;;;;5031703;28;20791;-70
2023/02/28 12:04:55;;;;;;;1999.90;999.90;;;13.00;8.50;;;;;;5031826;28;20481;-70
2023/02/28 12:07:50;;;;;;;1999.90;999.90;;;13.10;6.90;;;;;;5031186;28;20412;-70
2023/02/28 12:10:26;;;;;;;1999.90;999.90;;;13.40;5.60;;;;;;5010307;28;20480;-71
2023/02/28 12:13:01;;;;;;;1999.90;999.90;;;13.60;3.60;;;;;;5031569;28;20415;-70
2023/02/28 12:15:48;;;;;;;1999.90;999.90;;;13.90;5.00;;;;;;5031218;28;20804;-70
2023/02/28 12:18:26;;;;;;;1999.90;999.90;;;14.30;3.90;;;;;;5031382;28;20943;-70
2023/02/28 12:21:14;;;;;;;1999.90;999.90;;;14.90;2.90;;;;;;5031059;28;20813;-70